createdAt,value
2023-01-13T00:02:17.819Z,24.02
2023-01-13T00:05:04.144Z,21.08
2023-01-13T00:07:49.834Z,24.90
2023-01-13T00:10:36.214Z,24.38
2023-01-13T00:13:26.548Z,26.50
2023-01-13T00:16:15.645Z,24.95
2023-01-13T00:19:01.176Z,20.20
2023-01-13T00:21:46.716Z,23.38
2023-01-13T00:24:32.513Z,29.80
2023-01-13T00:27:17.861Z,27.52
2023-01-13T00:30:04.323Z,33.08
2023-01-13T00:32:50.248Z,29.13
2023-01-13T00:35:35.900Z,30.85
2023-01-13T00:38:21.768Z,28.88
2023-01-13T00:41:10.283Z,29.83
2023-01-13T00:43:55.728Z,38.55
2023-01-13T00:46:41.456Z,36.50
2023-01-13T00:49:26.965Z,32.33
2023-01-13T00:52:12.746Z,37.50
2023-01-13T00:54:58.172Z,32.20
2023-01-13T00:57:43.827Z,26.13
2023-01-13T01:00:33.424Z,26.10
2023-01-13T01:03:19.250Z,35.10
2023-01-13T01:06:12.530Z,24.98
2023-01-13T01:08:58.076Z,25.45
2023-01-13T01:11:43.905Z,26.10
2023-01-13T01:14:29.500Z,27.67
2023-01-13T01:17:14.984Z,23.05
2023-01-13T01:20:00.681Z,26.67
2023-01-13T01:22:46.283Z,29.80
2023-01-13T01:25:33.188Z,21.88
2023-01-13T01:28:20.586Z,23.35
2023-01-13T01:31:15.007Z,27.40
2023-01-13T01:34:01.961Z,23.67
2023-01-13T01:36:47.478Z,22.17
2023-01-13T01:39:33.168Z,24.85
2023-01-13T01:42:37.754Z,19.88
2023-01-13T01:45:25.084Z,19.25
2023-01-13T01:48:12.199Z,22.67
2023-01-13T01:50:57.843Z,24.30
2023-01-13T01:53:43.937Z,21.42
2023-01-13T01:56:30.654Z,24.92
2023-01-13T01:59:16.973Z,23.60
2023-01-13T02:02:03.254Z,27.52
2023-01-13T02:04:53.454Z,24.67
2023-01-13T02:07:41.673Z,22.70
2023-01-13T02:10:30.136Z,24.05
2023-01-13T02:13:15.535Z,26.85
2023-01-13T02:16:15.093Z,29.77
2023-01-13T02:19:41.005Z,20.40
2023-01-13T02:22:46.366Z,24.85
2023-01-13T02:25:31.943Z,25.63
2023-01-13T02:28:32.859Z,21.40
2023-01-13T02:31:37.203Z,18.27
2023-01-13T02:34:35.821Z,22.00
2023-01-13T02:37:28.789Z,19.80
2023-01-13T02:40:45.121Z,20.92
2023-01-13T02:43:57.194Z,19.98
2023-01-13T02:47:01.299Z,22.80
2023-01-13T02:50:00.557Z,23.52
2023-01-13T02:52:55.189Z,23.27
2023-01-13T02:55:48.548Z,27.75
2023-01-13T02:58:36.203Z,20.27
2023-01-13T03:01:22.364Z,22.67
2023-01-13T03:04:34.667Z,24.10
2023-01-13T03:07:39.363Z,25.40
2023-01-13T03:10:49.644Z,24.35
2023-01-13T03:14:26.591Z,20.73
2023-01-13T03:17:27.027Z,23.67
2023-01-13T03:20:19.035Z,19.73
2023-01-13T03:23:13.343Z,21.08
2023-01-13T03:26:17.445Z,22.60
2023-01-13T03:29:25.984Z,27.88
2023-01-13T03:32:20.341Z,23.45
2023-01-13T03:35:18.263Z,19.90
2023-01-13T03:38:16.981Z,24.02
2023-01-13T03:41:10.583Z,21.38
2023-01-13T03:44:27.303Z,24.30
2023-01-13T03:47:29.776Z,24.10
2023-01-13T03:50:20.646Z,25.85
2023-01-13T03:53:15.126Z,25.40
2023-01-13T03:56:44.669Z,24.02
2023-01-13T03:59:35.779Z,30.50
2023-01-13T04:02:27.646Z,21.60
2023-01-13T04:05:14.095Z,27.80
2023-01-13T04:08:14.959Z,25.70
2023-01-13T04:11:10.615Z,25.63
2023-01-13T04:13:58.614Z,26.40
2023-01-13T04:16:44.275Z,22.02
2023-01-13T04:19:29.985Z,23.58
2023-01-13T04:22:15.620Z,22.83
2023-01-13T04:25:01.169Z,20.52
2023-01-13T04:27:46.827Z,23.13
2023-01-13T04:30:32.532Z,21.70
2023-01-13T04:33:19.274Z,18.30
2023-01-13T04:36:05.876Z,18.90
2023-01-13T04:38:51.677Z,18.67
2023-01-13T04:41:55.405Z,18.00
2023-01-13T04:44:40.808Z,18.38
2023-01-13T04:47:26.323Z,15.00
2023-01-13T04:50:12.147Z,19.75
2023-01-13T04:52:57.772Z,17.05
2023-01-13T04:55:44.497Z,16.88
2023-01-13T04:58:29.925Z,14.82
2023-01-13T05:01:15.510Z,16.23
2023-01-13T05:04:02.059Z,14.93
2023-01-13T05:06:47.684Z,15.90
2023-01-13T05:09:33.095Z,15.52
2023-01-13T05:12:37.293Z,19.92
2023-01-13T05:15:41.387Z,15.30
2023-01-13T05:18:29.039Z,18.30
2023-01-13T05:21:33.576Z,17.35
2023-01-13T05:24:37.372Z,16.92
2023-01-13T05:27:23.239Z,24.30
2023-01-13T05:30:09.597Z,15.55
2023-01-13T05:32:55.783Z,13.98
2023-01-13T05:35:43.319Z,21.80
2023-01-13T05:38:29.049Z,20.33
2023-01-13T05:41:33.141Z,13.85
2023-01-13T05:44:18.857Z,19.50
2023-01-13T05:47:04.496Z,21.65
2023-01-13T05:49:50.360Z,26.95
2023-01-13T05:52:35.988Z,18.08
2023-01-13T05:55:21.564Z,18.70
2023-01-13T05:58:08.802Z,15.73
2023-01-13T06:01:04.774Z,19.77
2023-01-13T06:03:50.373Z,17.02
2023-01-13T06:06:35.868Z,15.73
2023-01-13T06:09:22.698Z,17.48
2023-01-13T06:12:13.356Z,21.10
2023-01-13T06:14:59.103Z,21.83
2023-01-13T06:17:44.757Z,18.58
2023-01-13T06:20:30.464Z,22.05
2023-01-13T06:23:16.105Z,19.85
2023-01-13T06:26:11.628Z,19.23
2023-01-13T06:28:57.078Z,19.10
2023-01-13T06:31:43.147Z,20.52
2023-01-13T06:34:28.961Z,25.38
2023-01-13T06:37:20.118Z,22.83
2023-01-13T06:40:07.733Z,21.85
2023-01-13T06:43:16.345Z,19.98
2023-01-13T06:46:02.964Z,20.33
2023-01-13T06:48:48.712Z,23.27
2023-01-13T06:51:34.198Z,21.40
2023-01-13T06:54:19.771Z,24.90
2023-01-13T06:57:05.448Z,20.55
2023-01-13T06:59:51.110Z,21.45
2023-01-13T07:02:36.761Z,27.92
2023-01-13T07:05:22.471Z,23.35
2023-01-13T07:08:10.058Z,29.13
2023-01-13T07:10:56.666Z,22.73
2023-01-13T07:14:01.041Z,24.20
2023-01-13T07:16:47.742Z,21.70
2023-01-13T07:19:33.554Z,22.65
2023-01-13T07:22:19.289Z,23.70
2023-01-13T07:25:05.383Z,24.48
2023-01-13T07:27:50.983Z,30.13
2023-01-13T07:30:37.939Z,26.40
2023-01-13T07:33:23.948Z,31.17
2023-01-13T07:36:10.202Z,25.80
2023-01-13T07:38:56.714Z,29.58
2023-01-13T07:42:01.147Z,27.63
2023-01-13T07:44:46.508Z,31.33
2023-01-13T07:47:32.155Z,26.90
2023-01-13T07:50:18.911Z,28.42
2023-01-13T07:53:04.595Z,25.20
2023-01-13T07:55:50.803Z,20.50
2023-01-13T07:58:37.493Z,24.65
2023-01-13T08:01:23.353Z,23.25
2023-01-13T08:04:09.052Z,26.27
2023-01-13T08:06:54.491Z,26.95
2023-01-13T08:09:40.241Z,24.23
2023-01-13T08:12:53.621Z,39.42
2023-01-13T08:15:43.583Z,28.67
2023-01-13T08:18:29.984Z,29.45
2023-01-13T08:21:16.072Z,27.35
2023-01-13T08:24:01.747Z,36.05
2023-01-13T08:26:47.496Z,28.30
2023-01-13T08:29:33.419Z,32.45
2023-01-13T08:32:19.063Z,29.38
2023-01-13T08:35:04.954Z,32.85
2023-01-13T08:37:51.732Z,34.65
2023-01-13T08:40:39.635Z,34.92
2023-01-13T08:43:25.364Z,43.03
2023-01-13T08:46:12.337Z,37.28
2023-01-13T08:48:58.236Z,37.85
2023-01-13T08:51:44.156Z,38.05
2023-01-13T08:54:29.852Z,44.00
2023-01-13T08:57:15.911Z,45.63
2023-01-13T09:00:01.874Z,49.75
2023-01-13T09:02:47.805Z,41.25
2023-01-13T09:05:35.021Z,49.40
2023-01-13T09:08:20.812Z,49.95
2023-01-13T09:11:26.830Z,49.88
2023-01-13T09:14:12.643Z,50.63
2023-01-13T09:16:59.427Z,50.25
2023-01-13T09:19:45.153Z,50.40
2023-01-13T09:22:31.023Z,49.30
2023-01-13T09:25:16.563Z,59.63
2023-01-13T09:28:02.635Z,60.00
2023-01-13T09:30:48.577Z,54.55
2023-01-13T09:33:52.688Z,58.58
2023-01-13T09:36:38.215Z,86.45
2023-01-13T09:39:23.626Z,80.75
2023-01-13T09:42:52.571Z,65.90
2023-01-13T09:45:53.019Z,61.30
2023-01-13T09:48:51.997Z,58.25
2023-01-13T09:51:49.385Z,50.78
2023-01-13T09:54:41.156Z,48.53
2023-01-13T09:57:29.767Z,52.47
2023-01-13T10:00:36.461Z,47.65
2023-01-13T10:03:33.072Z,58.67
2023-01-13T10:06:24.064Z,53.13
2023-01-13T10:09:42.693Z,61.88
2023-01-13T10:12:49.462Z,55.95
2023-01-13T10:15:34.776Z,57.08
2023-01-13T10:18:28.145Z,52.25
2023-01-13T10:21:19.482Z,57.53
2023-01-13T10:24:11.340Z,61.03
2023-01-13T10:27:17.509Z,65.10
2023-01-13T10:30:21.261Z,66.20
2023-01-13T10:33:21.390Z,57.03
2023-01-13T10:36:16.417Z,50.83
2023-01-13T10:39:14.621Z,57.22
2023-01-13T10:42:04.927Z,69.00
2023-01-13T10:44:55.925Z,59.95
2023-01-13T10:47:42.884Z,52.30
2023-01-13T10:50:29.780Z,49.78
2023-01-13T10:53:26.366Z,58.00
2023-01-13T10:56:18.207Z,60.55
2023-01-13T10:59:18.850Z,64.47
2023-01-13T11:02:25.923Z,59.67
2023-01-13T11:05:25.061Z,55.30
2023-01-13T11:08:20.228Z,60.90
2023-01-13T11:11:38.238Z,48.00
2023-01-13T11:14:41.626Z,48.15
2023-01-13T11:17:48.764Z,44.13
2023-01-13T11:20:38.377Z,45.25
2023-01-13T11:23:37.164Z,53.33
2023-01-13T11:26:33.217Z,48.42
2023-01-13T11:29:27.487Z,40.85
2023-01-13T11:32:18.704Z,40.22
2023-01-13T11:35:16.341Z,50.80
2023-01-13T11:38:14.809Z,49.15
2023-01-13T11:41:15.677Z,39.00
2023-01-13T11:44:33.590Z,46.00
2023-01-13T11:47:23.796Z,37.72
2023-01-13T11:50:28.333Z,40.13
2023-01-13T11:53:32.750Z,37.00
2023-01-13T11:56:58.278Z,45.33
2023-01-13T12:00:00.902Z,47.10
2023-01-13T12:03:23.446Z,46.55
2023-01-13T12:06:30.688Z,48.38
2023-01-13T12:09:16.671Z,52.78
2023-01-13T12:12:34.826Z,42.35
2023-01-13T12:15:31.925Z,46.13
2023-01-13T12:18:25.168Z,48.20
2023-01-13T12:21:28.700Z,52.22
2023-01-13T12:24:27.508Z,57.27
2023-01-13T12:27:38.161Z,48.60
2023-01-13T12:30:40.710Z,50.10
2023-01-13T12:33:29.599Z,57.43
2023-01-13T12:36:52.872Z,49.97
2023-01-13T12:39:57.878Z,57.90
2023-01-13T12:43:25.759Z,49.97
2023-01-13T12:46:23.438Z,52.33
2023-01-13T12:49:20.108Z,53.70
2023-01-13T12:52:18.369Z,49.95
2023-01-13T12:55:09.055Z,52.17
2023-01-13T12:58:06.849Z,55.08
2023-01-13T13:00:58.159Z,47.38
2023-01-13T13:04:09.189Z,48.10
2023-01-13T13:07:29.747Z,48.78
2023-01-13T13:10:32.878Z,48.42
2023-01-13T13:13:43.226Z,50.20
2023-01-13T13:16:29.716Z,49.03
2023-01-13T13:19:18.766Z,50.85
2023-01-13T13:22:17.974Z,51.20
2023-01-13T13:25:03.886Z,58.42
2023-01-13T13:27:55.364Z,69.13
2023-01-13T13:30:53.700Z,59.60
2023-01-13T13:33:52.999Z,59.70
2023-01-13T13:36:46.139Z,65.57
2023-01-13T13:39:51.569Z,55.63
2023-01-13T13:43:01.561Z,45.80
2023-01-13T13:46:10.731Z,56.60
2023-01-13T13:48:57.061Z,67.70
2023-01-13T13:52:03.374Z,55.95
2023-01-13T13:54:53.946Z,51.05
2023-01-13T13:57:42.544Z,54.92
2023-01-13T14:00:38.044Z,57.58
2023-01-13T14:03:29.281Z,48.85
2023-01-13T14:06:24.260Z,52.83
2023-01-13T14:09:17.337Z,53.38
2023-01-13T14:12:08.641Z,49.90
2023-01-13T14:14:57.469Z,55.15
2023-01-13T14:17:42.981Z,56.28
2023-01-13T14:20:29.275Z,58.95
2023-01-13T14:23:20.810Z,56.67
2023-01-13T14:26:14.958Z,51.15
2023-01-13T14:29:02.177Z,59.42
2023-01-13T14:31:53.180Z,57.67
2023-01-13T14:34:39.053Z,55.47
2023-01-13T14:37:40.053Z,56.47
2023-01-13T14:40:38.231Z,57.50
2023-01-13T14:43:25.647Z,59.53
2023-01-13T14:46:12.715Z,61.70
2023-01-13T14:49:01.983Z,61.58
2023-01-13T14:51:47.737Z,63.22
2023-01-13T14:54:58.346Z,61.50
2023-01-13T14:57:44.281Z,62.75
2023-01-13T15:00:30.190Z,59.70
2023-01-13T15:03:18.097Z,63.97
2023-01-13T15:06:26.565Z,62.35
2023-01-13T15:09:13.576Z,62.05
2023-01-13T15:12:27.606Z,68.03
2023-01-13T15:15:22.742Z,60.95
2023-01-13T15:18:16.952Z,63.92
2023-01-13T15:21:02.486Z,77.28
2023-01-13T15:23:48.146Z,62.38
2023-01-13T15:26:35.038Z,60.38
2023-01-13T15:29:22.023Z,61.70
2023-01-13T15:32:21.005Z,59.47
2023-01-13T15:35:07.439Z,62.35
2023-01-13T15:37:54.802Z,68.47
2023-01-13T15:40:41.462Z,60.13
2023-01-13T15:43:45.619Z,66.28
2023-01-13T15:46:40.198Z,58.13
2023-01-13T15:49:34.842Z,67.28
2023-01-13T15:52:24.195Z,63.55
2023-01-13T15:55:10.375Z,62.90
2023-01-13T15:57:55.888Z,62.60
2023-01-13T16:00:42.387Z,71.05
2023-01-13T16:03:28.195Z,71.15
2023-01-13T16:06:21.066Z,68.18
2023-01-13T16:09:07.248Z,72.80
2023-01-13T16:11:52.907Z,81.13
2023-01-13T16:14:38.431Z,75.90
2023-01-13T16:17:29.516Z,76.45
2023-01-13T16:20:18.731Z,81.78
2023-01-13T16:23:04.566Z,77.50
2023-01-13T16:25:50.506Z,75.60
2023-01-13T16:28:36.174Z,76.57
2023-01-13T16:31:29.229Z,85.47
2023-01-13T16:34:14.961Z,80.25
2023-01-13T16:37:01.040Z,77.43
2023-01-13T16:39:50.042Z,77.15
2023-01-13T16:42:35.872Z,82.38
2023-01-13T16:45:21.622Z,81.65
2023-01-13T16:48:19.486Z,79.50
2023-01-13T16:51:06.236Z,80.22
2023-01-13T16:53:52.999Z,94.07
2023-01-13T16:56:39.041Z,77.75
2023-01-13T16:59:24.973Z,92.57
2023-01-13T17:02:15.310Z,83.70
2023-01-13T17:05:01.118Z,81.85
2023-01-13T17:07:47.878Z,81.40
2023-01-13T17:10:33.361Z,83.22
2023-01-13T17:13:19.561Z,89.70
2023-01-13T17:16:06.223Z,81.35
2023-01-13T17:18:54.350Z,88.25
2023-01-13T17:21:39.841Z,86.57
2023-01-13T17:24:25.871Z,91.78
2023-01-13T17:27:12.455Z,98.97
2023-01-13T17:29:58.216Z,96.72
2023-01-13T17:32:43.870Z,93.53
2023-01-13T17:35:29.499Z,84.45
2023-01-13T17:38:15.005Z,83.68
2023-01-13T17:41:04.702Z,72.40
2023-01-13T17:43:50.123Z,80.38
2023-01-13T17:46:35.776Z,73.30
2023-01-13T17:49:22.011Z,75.32
2023-01-13T17:52:07.787Z,72.28
2023-01-13T17:54:53.490Z,72.90
2023-01-13T17:57:40.910Z,75.97
2023-01-13T18:00:29.803Z,74.30
2023-01-13T18:03:17.000Z,76.10
2023-01-13T18:06:04.956Z,63.17
2023-01-13T18:08:50.894Z,69.85
2023-01-13T18:11:36.643Z,73.30
2023-01-13T18:14:22.569Z,73.43
2023-01-13T18:17:08.482Z,72.63
2023-01-13T18:20:12.695Z,75.40
2023-01-13T18:23:16.703Z,77.85
2023-01-13T18:26:50.547Z,87.20
2023-01-13T18:29:35.973Z,81.47
2023-01-13T18:32:23.759Z,76.38
2023-01-13T18:35:10.528Z,77.85
2023-01-13T18:37:56.320Z,82.28
2023-01-13T18:40:44.163Z,85.57
2023-01-13T18:43:33.207Z,93.32
2023-01-13T18:46:18.750Z,100.82
2023-01-13T18:49:04.557Z,98.35
2023-01-13T18:51:50.368Z,99.38
2023-01-13T18:54:41.186Z,93.13
2023-01-13T18:57:26.881Z,99.82
2023-01-13T19:00:17.179Z,95.80
2023-01-13T19:05:51.449Z,92.75
2023-01-13T19:08:37.490Z,88.47
2023-01-13T19:11:24.257Z,86.38
2023-01-13T19:14:09.861Z,91.85
2023-01-13T19:16:55.277Z,74.03
2023-01-13T19:19:43.978Z,76.57
2023-01-13T19:22:34.879Z,77.30
2023-01-13T19:25:20.492Z,75.13
2023-01-13T19:28:06.076Z,81.97
2023-01-13T19:30:52.474Z,81.47
2023-01-13T19:33:39.936Z,75.43
2023-01-13T19:36:26.910Z,75.95
2023-01-13T19:39:12.573Z,78.22
2023-01-13T19:42:16.814Z,74.57
2023-01-13T19:45:22.002Z,84.15
2023-01-13T19:48:08.591Z,85.35
2023-01-13T19:50:54.321Z,77.82
2023-01-13T19:53:40.539Z,80.90
2023-01-13T19:56:26.602Z,91.88
2023-01-13T19:59:19.053Z,76.70
2023-01-13T20:02:04.941Z,75.53
2023-01-13T20:04:50.492Z,77.28
2023-01-13T20:07:36.380Z,77.70
2023-01-13T20:10:24.387Z,78.47
2023-01-13T20:13:09.971Z,93.13
2023-01-13T20:15:55.705Z,92.43
2023-01-13T20:18:41.301Z,83.15
2023-01-13T20:21:27.031Z,80.95
2023-01-13T20:24:17.130Z,69.15
2023-01-13T20:27:03.827Z,73.53
2023-01-13T20:29:49.197Z,74.28
2023-01-13T20:32:35.899Z,62.33
2023-01-13T20:35:21.349Z,66.78
2023-01-13T20:38:06.997Z,60.35
2023-01-13T20:40:59.891Z,60.05
2023-01-13T20:43:45.257Z,57.60
2023-01-13T20:46:30.826Z,53.92
2023-01-13T20:49:16.565Z,47.65
2023-01-13T20:52:05.192Z,43.38
2023-01-13T20:54:51.105Z,55.22
2023-01-13T20:57:37.154Z,47.60
2023-01-13T21:00:23.027Z,47.75
2023-01-13T21:03:08.566Z,44.50
2023-01-13T21:05:54.192Z,46.92
2023-01-13T21:08:39.810Z,41.88
2023-01-13T21:11:45.772Z,43.05
2023-01-13T21:14:49.966Z,41.40
2023-01-13T21:17:56.389Z,44.75
2023-01-13T21:20:41.848Z,41.35
2023-01-13T21:23:27.683Z,45.58
2023-01-13T21:26:15.721Z,39.38
2023-01-13T21:29:02.494Z,46.38
2023-01-13T21:31:48.181Z,57.80
2023-01-13T21:34:35.408Z,60.17
2023-01-13T21:37:20.910Z,59.25
2023-01-13T21:40:08.217Z,70.15
2023-01-13T21:43:12.363Z,61.55
2023-01-13T21:46:16.577Z,69.07
2023-01-13T21:49:03.006Z,59.97
2023-01-13T21:51:48.791Z,55.58
2023-01-13T21:54:34.457Z,50.55
2023-01-13T21:57:19.852Z,51.88
2023-01-13T22:00:06.150Z,53.40
2023-01-13T22:02:52.874Z,45.00
2023-01-13T22:05:38.805Z,48.22
2023-01-13T22:08:24.624Z,52.67
2023-01-13T22:11:10.236Z,48.17
2023-01-13T22:14:09.671Z,49.08
2023-01-13T22:16:59.635Z,60.15
2023-01-13T22:19:47.781Z,56.58
2023-01-13T22:22:36.759Z,50.45
2023-01-13T22:25:23.629Z,50.17
2023-01-13T22:28:09.581Z,48.22
2023-01-13T22:30:55.313Z,46.47
2023-01-13T22:33:42.281Z,43.92
2023-01-13T22:36:28.236Z,44.30
2023-01-13T22:39:13.630Z,38.67
2023-01-13T22:41:59.268Z,42.85
2023-01-13T22:44:44.835Z,40.38
2023-01-13T22:47:31.351Z,41.85
2023-01-13T22:50:20.675Z,49.78
2023-01-13T22:53:06.071Z,48.20
2023-01-13T22:55:59.175Z,40.97
2023-01-13T22:58:45.263Z,43.97
2023-01-13T23:01:33.418Z,41.22
2023-01-13T23:04:19.211Z,38.97
2023-01-13T23:07:04.696Z,46.38
2023-01-13T23:09:50.244Z,44.40
2023-01-13T23:12:35.799Z,41.42
2023-01-13T23:15:21.291Z,41.38
2023-01-13T23:18:06.870Z,45.72
2023-01-13T23:20:52.404Z,41.65
2023-01-13T23:23:38.275Z,36.85
2023-01-13T23:26:24.320Z,39.47
2023-01-13T23:29:12.687Z,42.70
2023-01-13T23:31:58.510Z,47.67
2023-01-13T23:34:44.020Z,36.72
2023-01-13T23:37:29.682Z,35.45
2023-01-13T23:40:15.216Z,37.72
2023-01-13T23:43:00.902Z,40.05
2023-01-13T23:45:47.292Z,34.80
2023-01-13T23:48:33.556Z,41.28
2023-01-13T23:51:21.283Z,41.33
2023-01-13T23:54:06.875Z,41.13
2023-01-13T23:56:52.688Z,39.35
2023-01-13T23:59:38.403Z,37.53
